sensor_id;sensor_type;location;lat;lon;timestamp;P1;durP1;ratioP1;P2;durP2;ratioP2
33104;SDS011;19476;51.448;6.674;2023-02-03T00:01:17;9.10;;;5.45;;
33104;SDS011;19476;51.448;6.674;2023-02-03T00:03:43;9.73;;;6.30;;
33104;SDS011;19476;51.448;6.674;2023-02-03T00:06:09;11.93;;;5.60;;
33104;SDS011;19476;51.448;6.674;2023-02-03T00:08:35;7.43;;;4.88;;
33104;SDS011;19476;51.448;6.674;2023-02-03T00:11:02;8.82;;;5.00;;
33104;SDS011;19476;51.448;6.674;2023-02-03T00:13:28;12.90;;;5.63;;
33104;SDS011;19476;51.448;6.674;2023-02-03T00:15:54;10.52;;;5.57;;
33104;SDS011;19476;51.448;6.674;2023-02-03T00:18:20;9.80;;;5.72;;
33104;SDS011;19476;51.448;6.674;2023-02-03T00:20:46;10.35;;;5.22;;
33104;SDS011;19476;51.448;6.674;2023-02-03T00:23:12;10.70;;;5.32;;
33104;SDS011;19476;51.448;6.674;2023-02-03T00:25:38;9.68;;;5.35;;
33104;SDS011;19476;51.448;6.674;2023-02-03T00:28:04;8.00;;;5.28;;
33104;SDS011;19476;51.448;6.674;2023-02-03T00:30:32;8.20;;;4.85;;
33104;SDS011;19476;51.448;6.674;2023-02-03T00:32:58;9.48;;;5.25;;
33104;SDS011;19476;51.448;6.674;2023-02-03T00:35:25;9.15;;;4.65;;
33104;SDS011;19476;51.448;6.674;2023-02-03T00:37:55;9.38;;;5.40;;
33104;SDS011;19476;51.448;6.674;2023-02-03T00:40:22;8.73;;;6.03;;
33104;SDS011;19476;51.448;6.674;2023-02-03T00:42:50;12.23;;;5.68;;
33104;SDS011;19476;51.448;6.674;2023-02-03T00:45:16;10.90;;;5.28;;
33104;SDS011;19476;51.448;6.674;2023-02-03T00:47:42;10.85;;;5.60;;
33104;SDS011;19476;51.448;6.674;2023-02-03T00:50:08;11.00;;;5.55;;
33104;SDS011;19476;51.448;6.674;2023-02-03T00:52:50;9.48;;;5.28;;
33104;SDS011;19476;51.448;6.674;2023-02-03T00:55:15;12.15;;;5.88;;
33104;SDS011;19476;51.448;6.674;2023-02-03T00:57:41;11.20;;;5.85;;
33104;SDS011;19476;51.448;6.674;2023-02-03T01:00:07;12.02;;;6.80;;
33104;SDS011;19476;51.448;6.674;2023-02-03T01:02:34;13.63;;;5.82;;
33104;SDS011;19476;51.448;6.674;2023-02-03T01:04:59;9.10;;;5.57;;
33104;SDS011;19476;51.448;6.674;2023-02-03T01:07:25;8.70;;;5.38;;
33104;SDS011;19476;51.448;6.674;2023-02-03T01:09:51;8.30;;;4.88;;
33104;SDS011;19476;51.448;6.674;2023-02-03T01:12:16;11.77;;;6.10;;
33104;SDS011;19476;51.448;6.674;2023-02-03T01:14:42;9.75;;;5.68;;
33104;SDS011;19476;51.448;6.674;2023-02-03T01:17:08;10.43;;;6.13;;
33104;SDS011;19476;51.448;6.674;2023-02-03T01:19:34;10.35;;;5.70;;
33104;SDS011;19476;51.448;6.674;2023-02-03T01:21:59;10.27;;;5.57;;
33104;SDS011;19476;51.448;6.674;2023-02-03T01:24:25;9.27;;;5.63;;
33104;SDS011;19476;51.448;6.674;2023-02-03T01:26:54;10.73;;;5.70;;
33104;SDS011;19476;51.448;6.674;2023-02-03T01:29:20;9.90;;;6.22;;
33104;SDS011;19476;51.448;6.674;2023-02-03T01:31:45;9.32;;;4.97;;
33104;SDS011;19476;51.448;6.674;2023-02-03T01:34:12;9.32;;;5.15;;
33104;SDS011;19476;51.448;6.674;2023-02-03T01:36:40;8.55;;;4.40;;
33104;SDS011;19476;51.448;6.674;2023-02-03T01:39:06;10.15;;;5.75;;
33104;SDS011;19476;51.448;6.674;2023-02-03T01:41:35;8.52;;;4.88;;
33104;SDS011;19476;51.448;6.674;2023-02-03T01:44:49;9.00;;;5.53;;
33104;SDS011;19476;51.448;6.674;2023-02-03T01:46:58;8.48;;;4.93;;
33104;SDS011;19476;51.448;6.674;2023-02-03T01:49:24;10.57;;;5.03;;
33104;SDS011;19476;51.448;6.674;2023-02-03T01:51:54;8.10;;;4.93;;
33104;SDS011;19476;51.448;6.674;2023-02-03T01:54:30;8.48;;;5.15;;
33104;SDS011;19476;51.448;6.674;2023-02-03T01:57:23;9.45;;;4.60;;
33104;SDS011;19476;51.448;6.674;2023-02-03T01:59:50;8.93;;;4.40;;
33104;SDS011;19476;51.448;6.674;2023-02-03T02:02:18;8.60;;;4.32;;
33104;SDS011;19476;51.448;6.674;2023-02-03T02:05:04;10.48;;;4.53;;
33104;SDS011;19476;51.448;6.674;2023-02-03T02:07:35;9.68;;;4.75;;
33104;SDS011;19476;51.448;6.674;2023-02-03T02:10:03;6.95;;;3.95;;
33104;SDS011;19476;51.448;6.674;2023-02-03T02:12:30;7.63;;;4.38;;
33104;SDS011;19476;51.448;6.674;2023-02-03T02:14:55;8.77;;;4.32;;
33104;SDS011;19476;51.448;6.674;2023-02-03T02:23:24;11.25;;;4.70;;
33104;SDS011;19476;51.448;6.674;2023-02-03T02:26:21;6.25;;;3.78;;
33104;SDS011;19476;51.448;6.674;2023-02-03T02:44:50;9.20;;;3.13;;
33104;SDS011;19476;51.448;6.674;2023-02-03T02:47:20;8.68;;;3.80;;
33104;SDS011;19476;51.448;6.674;2023-02-03T02:52:26;7.97;;;2.90;;
33104;SDS011;19476;51.448;6.674;2023-02-03T02:54:55;7.40;;;3.07;;
33104;SDS011;19476;51.448;6.674;2023-02-03T02:57:26;11.68;;;3.38;;
33104;SDS011;19476;51.448;6.674;2023-02-03T02:59:55;6.95;;;2.90;;
33104;SDS011;19476;51.448;6.674;2023-02-03T03:02:21;7.80;;;2.85;;
33104;SDS011;19476;51.448;6.674;2023-02-03T03:04:55;6.03;;;2.25;;
33104;SDS011;19476;51.448;6.674;2023-02-03T03:07:22;7.95;;;3.17;;
33104;SDS011;19476;51.448;6.674;2023-02-03T03:09:52;7.40;;;2.75;;
33104;SDS011;19476;51.448;6.674;2023-02-03T03:12:33;4.82;;;2.25;;
33104;SDS011;19476;51.448;6.674;2023-02-03T03:17:36;6.05;;;2.63;;
33104;SDS011;19476;51.448;6.674;2023-02-03T03:20:11;5.55;;;2.50;;
33104;SDS011;19476;51.448;6.674;2023-02-03T03:22:44;3.35;;;2.10;;
33104;SDS011;19476;51.448;6.674;2023-02-03T03:25:25;6.07;;;2.30;;
33104;SDS011;19476;51.448;6.674;2023-02-03T03:27:57;6.47;;;2.35;;
33104;SDS011;19476;51.448;6.674;2023-02-03T03:30:32;7.25;;;2.60;;
33104;SDS011;19476;51.448;6.674;2023-02-03T03:33:01;5.30;;;2.25;;
33104;SDS011;19476;51.448;6.674;2023-02-03T03:35:30;7.05;;;2.50;;
33104;SDS011;19476;51.448;6.674;2023-02-03T03:38:06;6.50;;;2.47;;
33104;SDS011;19476;51.448;6.674;2023-02-03T03:41:00;6.28;;;2.30;;
33104;SDS011;19476;51.448;6.674;2023-02-03T03:43:32;5.82;;;2.67;;
33104;SDS011;19476;51.448;6.674;2023-02-03T03:46:12;6.25;;;2.80;;
33104;SDS011;19476;51.448;6.674;2023-02-03T03:48:42;5.53;;;2.08;;
33104;SDS011;19476;51.448;6.674;2023-02-03T03:51:24;4.63;;;2.03;;
33104;SDS011;19476;51.448;6.674;2023-02-03T03:54:07;6.50;;;2.08;;
33104;SDS011;19476;51.448;6.674;2023-02-03T03:56:39;5.82;;;1.80;;
33104;SDS011;19476;51.448;6.674;2023-02-03T03:59:24;7.00;;;2.17;;
33104;SDS011;19476;51.448;6.674;2023-02-03T04:01:53;3.55;;;1.83;;
33104;SDS011;19476;51.448;6.674;2023-02-03T04:04:19;6.20;;;2.25;;
33104;SDS011;19476;51.448;6.674;2023-02-03T04:06:47;5.45;;;2.22;;
33104;SDS011;19476;51.448;6.674;2023-02-03T04:09:12;7.57;;;2.00;;
33104;SDS011;19476;51.448;6.674;2023-02-03T04:11:38;5.03;;;1.83;;
33104;SDS011;19476;51.448;6.674;2023-02-03T04:14:22;6.13;;;2.40;;
33104;SDS011;19476;51.448;6.674;2023-02-03T04:16:48;5.03;;;2.50;;
33104;SDS011;19476;51.448;6.674;2023-02-03T04:19:14;5.95;;;3.13;;
33104;SDS011;19476;51.448;6.674;2023-02-03T04:21:40;4.72;;;2.22;;
33104;SDS011;19476;51.448;6.674;2023-02-03T04:24:05;7.18;;;2.25;;
33104;SDS011;19476;51.448;6.674;2023-02-03T04:26:31;3.72;;;2.10;;
33104;SDS011;19476;51.448;6.674;2023-02-03T04:28:57;7.80;;;2.22;;
33104;SDS011;19476;51.448;6.674;2023-02-03T04:31:23;5.13;;;2.13;;
33104;SDS011;19476;51.448;6.674;2023-02-03T04:33:48;5.20;;;2.40;;
33104;SDS011;19476;51.448;6.674;2023-02-03T04:36:14;11.02;;;2.63;;
33104;SDS011;19476;51.448;6.674;2023-02-03T04:38:40;5.43;;;2.13;;
33104;SDS011;19476;51.448;6.674;2023-02-03T04:41:06;4.35;;;2.08;;
33104;SDS011;19476;51.448;6.674;2023-02-03T04:43:31;4.55;;;2.15;;
33104;SDS011;19476;51.448;6.674;2023-02-03T04:46:00;3.65;;;1.88;;
33104;SDS011;19476;51.448;6.674;2023-02-03T04:48:26;6.22;;;2.53;;
33104;SDS011;19476;51.448;6.674;2023-02-03T04:50:52;4.15;;;1.80;;
33104;SDS011;19476;51.448;6.674;2023-02-03T04:53:18;5.45;;;1.90;;
33104;SDS011;19476;51.448;6.674;2023-02-03T04:55:46;6.27;;;2.17;;
33104;SDS011;19476;51.448;6.674;2023-02-03T04:58:12;3.38;;;1.80;;
33104;SDS011;19476;51.448;6.674;2023-02-03T05:00:39;5.78;;;2.03;;
33104;SDS011;19476;51.448;6.674;2023-02-03T05:03:04;4.53;;;1.35;;
33104;SDS011;19476;51.448;6.674;2023-02-03T05:05:30;4.75;;;1.70;;
33104;SDS011;19476;51.448;6.674;2023-02-03T05:07:56;4.50;;;1.88;;
33104;SDS011;19476;51.448;6.674;2023-02-03T05:10:22;6.43;;;2.08;;
33104;SDS011;19476;51.448;6.674;2023-02-03T05:12:48;5.55;;;2.08;;
33104;SDS011;19476;51.448;6.674;2023-02-03T05:15:14;6.18;;;1.88;;
33104;SDS011;19476;51.448;6.674;2023-02-03T05:17:40;5.82;;;1.77;;
33104;SDS011;19476;51.448;6.674;2023-02-03T05:20:06;4.53;;;1.85;;
33104;SDS011;19476;51.448;6.674;2023-02-03T05:22:32;3.13;;;1.58;;
33104;SDS011;19476;51.448;6.674;2023-02-03T05:24:59;4.85;;;1.30;;
33104;SDS011;19476;51.448;6.674;2023-02-03T05:27:25;3.15;;;1.25;;
33104;SDS011;19476;51.448;6.674;2023-02-03T05:29:51;7.47;;;2.28;;
33104;SDS011;19476;51.448;6.674;2023-02-03T05:32:17;4.07;;;1.70;;
33104;SDS011;19476;51.448;6.674;2023-02-03T05:34:43;3.75;;;1.08;;
33104;SDS011;19476;51.448;6.674;2023-02-03T05:37:08;5.50;;;1.23;;
33104;SDS011;19476;51.448;6.674;2023-02-03T05:39:34;5.65;;;1.48;;
33104;SDS011;19476;51.448;6.674;2023-02-03T05:42:00;3.78;;;1.02;;
33104;SDS011;19476;51.448;6.674;2023-02-03T05:44:27;6.35;;;1.63;;
33104;SDS011;19476;51.448;6.674;2023-02-03T05:46:54;6.15;;;1.70;;
33104;SDS011;19476;51.448;6.674;2023-02-03T05:49:21;3.95;;;1.30;;
33104;SDS011;19476;51.448;6.674;2023-02-03T05:51:48;4.25;;;1.40;;
33104;SDS011;19476;51.448;6.674;2023-02-03T05:54:14;4.00;;;1.40;;
33104;SDS011;19476;51.448;6.674;2023-02-03T05:56:40;4.38;;;1.63;;
33104;SDS011;19476;51.448;6.674;2023-02-03T05:59:06;3.33;;;1.00;;
33104;SDS011;19476;51.448;6.674;2023-02-03T06:01:32;3.13;;;1.10;;
33104;SDS011;19476;51.448;6.674;2023-02-03T06:03:59;5.63;;;1.35;;
33104;SDS011;19476;51.448;6.674;2023-02-03T06:06:26;3.67;;;1.15;;
33104;SDS011;19476;51.448;6.674;2023-02-03T06:08:58;7.72;;;1.73;;
33104;SDS011;19476;51.448;6.674;2023-02-03T06:11:24;2.97;;;1.17;;
33104;SDS011;19476;51.448;6.674;2023-02-03T06:13:50;3.85;;;1.63;;
33104;SDS011;19476;51.448;6.674;2023-02-03T06:16:16;4.05;;;1.17;;
33104;SDS011;19476;51.448;6.674;2023-02-03T06:18:42;3.83;;;1.08;;
33104;SDS011;19476;51.448;6.674;2023-02-03T06:21:08;3.75;;;1.20;;
33104;SDS011;19476;51.448;6.674;2023-02-03T06:23:33;6.10;;;1.45;;
33104;SDS011;19476;51.448;6.674;2023-02-03T06:25:59;3.00;;;1.20;;
33104;SDS011;19476;51.448;6.674;2023-02-03T06:28:25;5.90;;;1.40;;
33104;SDS011;19476;51.448;6.674;2023-02-03T06:30:51;7.07;;;1.67;;
33104;SDS011;19476;51.448;6.674;2023-02-03T06:33:19;5.45;;;1.60;;
33104;SDS011;19476;51.448;6.674;2023-02-03T06:35:45;5.95;;;1.60;;
33104;SDS011;19476;51.448;6.674;2023-02-03T06:38:11;3.92;;;1.30;;
33104;SDS011;19476;51.448;6.674;2023-02-03T06:40:36;6.60;;;1.70;;
33104;SDS011;19476;51.448;6.674;2023-02-03T06:43:02;4.85;;;1.40;;
33104;SDS011;19476;51.448;6.674;2023-02-03T06:45:28;5.63;;;1.48;;
33104;SDS011;19476;51.448;6.674;2023-02-03T06:47:54;5.82;;;1.45;;
33104;SDS011;19476;51.448;6.674;2023-02-03T06:50:20;5.55;;;1.52;;
33104;SDS011;19476;51.448;6.674;2023-02-03T06:52:48;2.90;;;0.98;;
33104;SDS011;19476;51.448;6.674;2023-02-03T06:55:14;4.68;;;1.30;;
33104;SDS011;19476;51.448;6.674;2023-02-03T06:57:43;3.95;;;1.35;;
33104;SDS011;19476;51.448;6.674;2023-02-03T07:00:11;7.25;;;2.17;;
33104;SDS011;19476;51.448;6.674;2023-02-03T07:02:38;4.93;;;1.25;;
33104;SDS011;19476;51.448;6.674;2023-02-03T07:05:04;4.03;;;1.30;;
33104;SDS011;19476;51.448;6.674;2023-02-03T07:07:30;4.15;;;1.48;;
33104;SDS011;19476;51.448;6.674;2023-02-03T07:09:58;4.55;;;1.55;;
33104;SDS011;19476;51.448;6.674;2023-02-03T07:12:25;5.75;;;1.30;;
33104;SDS011;19476;51.448;6.674;2023-02-03T07:14:50;4.20;;;1.52;;
33104;SDS011;19476;51.448;6.674;2023-02-03T07:17:16;2.75;;;1.15;;
33104;SDS011;19476;51.448;6.674;2023-02-03T07:19:42;4.43;;;1.20;;
33104;SDS011;19476;51.448;6.674;2023-02-03T07:22:09;4.07;;;1.40;;
33104;SDS011;19476;51.448;6.674;2023-02-03T07:24:35;3.75;;;1.15;;
33104;SDS011;19476;51.448;6.674;2023-02-03T07:27:01;3.00;;;0.95;;
33104;SDS011;19476;51.448;6.674;2023-02-03T07:29:28;2.72;;;1.40;;
33104;SDS011;19476;51.448;6.674;2023-02-03T07:31:54;3.72;;;1.50;;
33104;SDS011;19476;51.448;6.674;2023-02-03T07:34:19;3.85;;;1.52;;
33104;SDS011;19476;51.448;6.674;2023-02-03T07:36:45;3.10;;;1.35;;
33104;SDS011;19476;51.448;6.674;2023-02-03T07:39:11;5.15;;;1.50;;
33104;SDS011;19476;51.448;6.674;2023-02-03T07:41:37;4.65;;;1.35;;
33104;SDS011;19476;51.448;6.674;2023-02-03T07:44:02;7.07;;;1.45;;
33104;SDS011;19476;51.448;6.674;2023-02-03T07:46:29;3.85;;;1.23;;
33104;SDS011;19476;51.448;6.674;2023-02-03T07:48:55;3.30;;;1.05;;
33104;SDS011;19476;51.448;6.674;2023-02-03T07:51:21;7.03;;;1.30;;
33104;SDS011;19476;51.448;6.674;2023-02-03T07:53:46;3.13;;;0.90;;
33104;SDS011;19476;51.448;6.674;2023-02-03T07:56:12;3.53;;;0.90;;
33104;SDS011;19476;51.448;6.674;2023-02-03T07:58:38;2.97;;;0.90;;
33104;SDS011;19476;51.448;6.674;2023-02-03T08:01:11;3.53;;;1.30;;
33104;SDS011;19476;51.448;6.674;2023-02-03T08:03:38;3.78;;;1.10;;
33104;SDS011;19476;51.448;6.674;2023-02-03T08:06:05;3.72;;;1.40;;
33104;SDS011;19476;51.448;6.674;2023-02-03T08:08:31;6.13;;;1.95;;
33104;SDS011;19476;51.448;6.674;2023-02-03T08:10:57;5.35;;;1.40;;
33104;SDS011;19476;51.448;6.674;2023-02-03T08:13:23;2.05;;;1.20;;
33104;SDS011;19476;51.448;6.674;2023-02-03T08:15:49;3.42;;;1.08;;
33104;SDS011;19476;51.448;6.674;2023-02-03T08:18:15;6.05;;;1.10;;
33104;SDS011;19476;51.448;6.674;2023-02-03T08:20:40;2.35;;;0.90;;
33104;SDS011;19476;51.448;6.674;2023-02-03T08:23:06;4.45;;;1.10;;
33104;SDS011;19476;51.448;6.674;2023-02-03T08:25:32;3.15;;;0.70;;
33104;SDS011;19476;51.448;6.674;2023-02-03T08:27:58;2.22;;;0.88;;
33104;SDS011;19476;51.448;6.674;2023-02-03T08:30:24;3.42;;;1.38;;
33104;SDS011;19476;51.448;6.674;2023-02-03T08:32:50;3.53;;;1.05;;
33104;SDS011;19476;51.448;6.674;2023-02-03T08:35:15;5.10;;;1.38;;
33104;SDS011;19476;51.448;6.674;2023-02-03T08:37:43;3.50;;;1.45;;
33104;SDS011;19476;51.448;6.674;2023-02-03T08:40:09;4.82;;;1.20;;
33104;SDS011;19476;51.448;6.674;2023-02-03T08:42:36;3.95;;;1.02;;
33104;SDS011;19476;51.448;6.674;2023-02-03T08:45:02;3.03;;;1.27;;
33104;SDS011;19476;51.448;6.674;2023-02-03T08:47:29;4.88;;;1.45;;
33104;SDS011;19476;51.448;6.674;2023-02-03T08:49:55;4.07;;;1.20;;
33104;SDS011;19476;51.448;6.674;2023-02-03T08:52:21;5.32;;;1.33;;
33104;SDS011;19476;51.448;6.674;2023-02-03T08:54:47;4.32;;;1.10;;
33104;SDS011;19476;51.448;6.674;2023-02-03T08:57:13;5.88;;;1.58;;
33104;SDS011;19476;51.448;6.674;2023-02-03T08:59:39;3.63;;;1.15;;
33104;SDS011;19476;51.448;6.674;2023-02-03T09:02:08;2.90;;;0.90;;
33104;SDS011;19476;51.448;6.674;2023-02-03T09:04:37;2.75;;;1.17;;
33104;SDS011;19476;51.448;6.674;2023-02-03T09:07:03;4.80;;;1.27;;
33104;SDS011;19476;51.448;6.674;2023-02-03T09:09:29;2.50;;;1.00;;
33104;SDS011;19476;51.448;6.674;2023-02-03T09:11:55;3.50;;;1.10;;
33104;SDS011;19476;51.448;6.674;2023-02-03T09:14:26;5.80;;;1.38;;
33104;SDS011;19476;51.448;6.674;2023-02-03T09:16:57;3.50;;;1.10;;
33104;SDS011;19476;51.448;6.674;2023-02-03T09:19:27;4.35;;;1.13;;
33104;SDS011;19476;51.448;6.674;2023-02-03T09:21:53;3.78;;;1.38;;
33104;SDS011;19476;51.448;6.674;2023-02-03T09:24:21;2.90;;;1.15;;
33104;SDS011;19476;51.448;6.674;2023-02-03T09:26:47;2.25;;;1.00;;
33104;SDS011;19476;51.448;6.674;2023-02-03T09:29:13;4.60;;;2.05;;
33104;SDS011;19476;51.448;6.674;2023-02-03T09:31:39;4.40;;;1.27;;
33104;SDS011;19476;51.448;6.674;2023-02-03T09:34:05;6.28;;;1.30;;
33104;SDS011;19476;51.448;6.674;2023-02-03T09:36:32;3.45;;;1.20;;
33104;SDS011;19476;51.448;6.674;2023-02-03T09:38:58;4.25;;;1.23;;
33104;SDS011;19476;51.448;6.674;2023-02-03T09:43:51;5.22;;;1.35;;
33104;SDS011;19476;51.448;6.674;2023-02-03T09:46:23;3.53;;;1.20;;
33104;SDS011;19476;51.448;6.674;2023-02-03T09:49:03;6.15;;;1.55;;
33104;SDS011;19476;51.448;6.674;2023-02-03T09:51:37;4.32;;;1.27;;
33104;SDS011;19476;51.448;6.674;2023-02-03T09:54:25;4.45;;;1.30;;
33104;SDS011;19476;51.448;6.674;2023-02-03T09:57:09;3.05;;;1.15;;
33104;SDS011;19476;51.448;6.674;2023-02-03T09:59:41;3.90;;;1.10;;
33104;SDS011;19476;51.448;6.674;2023-02-03T10:05:23;3.85;;;1.52;;
33104;SDS011;19476;51.448;6.674;2023-02-03T10:08:00;3.10;;;1.42;;
33104;SDS011;19476;51.448;6.674;2023-02-03T10:20:16;4.18;;;1.60;;
33104;SDS011;19476;51.448;6.674;2023-02-03T10:22:32;3.15;;;1.30;;
33104;SDS011;19476;51.448;6.674;2023-02-03T10:28:11;4.35;;;1.80;;
33104;SDS011;19476;51.448;6.674;2023-02-03T10:30:41;6.03;;;1.52;;
33104;SDS011;19476;51.448;6.674;2023-02-03T10:33:14;3.45;;;1.48;;
33104;SDS011;19476;51.448;6.674;2023-02-03T10:38:13;5.72;;;1.98;;
33104;SDS011;19476;51.448;6.674;2023-02-03T10:40:46;7.90;;;1.67;;
33104;SDS011;19476;51.448;6.674;2023-02-03T10:43:12;6.47;;;1.73;;
33104;SDS011;19476;51.448;6.674;2023-02-03T10:45:56;3.10;;;1.42;;
33104;SDS011;19476;51.448;6.674;2023-02-03T10:48:23;4.00;;;1.23;;
33104;SDS011;19476;51.448;6.674;2023-02-03T10:50:49;5.18;;;1.88;;
33104;SDS011;19476;51.448;6.674;2023-02-03T10:53:18;4.18;;;1.67;;
33104;SDS011;19476;51.448;6.674;2023-02-03T10:58:49;4.57;;;1.35;;
33104;SDS011;19476;51.448;6.674;2023-02-03T11:01:20;3.65;;;1.55;;
33104;SDS011;19476;51.448;6.674;2023-02-03T11:04:00;4.32;;;1.38;;
33104;SDS011;19476;51.448;6.674;2023-02-03T11:06:28;6.55;;;1.40;;
33104;SDS011;19476;51.448;6.674;2023-02-03T11:08:55;4.28;;;1.13;;
33104;SDS011;19476;51.448;6.674;2023-02-03T11:11:25;6.43;;;1.60;;
33104;SDS011;19476;51.448;6.674;2023-02-03T11:16:33;2.78;;;1.40;;
33104;SDS011;19476;51.448;6.674;2023-02-03T11:21:42;5.15;;;1.42;;
33104;SDS011;19476;51.448;6.674;2023-02-03T11:24:27;3.42;;;1.30;;
33104;SDS011;19476;51.448;6.674;2023-02-03T11:26:59;3.30;;;1.58;;
33104;SDS011;19476;51.448;6.674;2023-02-03T11:32:14;6.65;;;2.08;;
33104;SDS011;19476;51.448;6.674;2023-02-03T11:34:48;3.90;;;1.50;;
33104;SDS011;19476;51.448;6.674;2023-02-03T11:42:32;3.50;;;1.15;;
33104;SDS011;19476;51.448;6.674;2023-02-03T11:47:59;3.63;;;1.50;;
33104;SDS011;19476;51.448;6.674;2023-02-03T11:51:21;4.40;;;1.40;;
33104;SDS011;19476;51.448;6.674;2023-02-03T11:58:51;6.15;;;1.80;;
33104;SDS011;19476;51.448;6.674;2023-02-03T12:12:12;4.43;;;1.58;;
33104;SDS011;19476;51.448;6.674;2023-02-03T12:20:21;4.85;;;1.80;;
33104;SDS011;19476;51.448;6.674;2023-02-03T12:28:28;4.95;;;1.90;;
33104;SDS011;19476;51.448;6.674;2023-02-03T12:31:03;5.78;;;1.63;;
33104;SDS011;19476;51.448;6.674;2023-02-03T12:33:47;5.20;;;1.80;;
33104;SDS011;19476;51.448;6.674;2023-02-03T12:36:25;5.60;;;1.50;;
33104;SDS011;19476;51.448;6.674;2023-02-03T12:41:54;5.03;;;1.58;;
33104;SDS011;19476;51.448;6.674;2023-02-03T12:49:59;8.52;;;2.05;;
33104;SDS011;19476;51.448;6.674;2023-02-03T12:57:34;4.05;;;1.50;;
33104;SDS011;19476;51.448;6.674;2023-02-03T13:00:19;6.20;;;1.95;;
33104;SDS011;19476;51.448;6.674;2023-02-03T13:02:59;4.63;;;1.50;;
33104;SDS011;19476;51.448;6.674;2023-02-03T13:05:42;4.32;;;1.27;;
33104;SDS011;19476;51.448;6.674;2023-02-03T13:08:15;6.22;;;1.70;;
33104;SDS011;19476;51.448;6.674;2023-02-03T13:11:27;4.45;;;1.55;;
33104;SDS011;19476;51.448;6.674;2023-02-03T13:14:14;6.32;;;1.75;;
33104;SDS011;19476;51.448;6.674;2023-02-03T13:16:52;8.57;;;1.90;;
33104;SDS011;19476;51.448;6.674;2023-02-03T13:19:24;4.72;;;1.67;;
33104;SDS011;19476;51.448;6.674;2023-02-03T13:21:56;3.63;;;1.27;;
33104;SDS011;19476;51.448;6.674;2023-02-03T13:24:22;3.60;;;1.40;;
33104;SDS011;19476;51.448;6.674;2023-02-03T13:38:13;2.67;;;1.02;;
33104;SDS011;19476;51.448;6.674;2023-02-03T13:40:50;3.40;;;1.30;;
33104;SDS011;19476;51.448;6.674;2023-02-03T13:43:18;2.60;;;1.30;;
33104;SDS011;19476;51.448;6.674;2023-02-03T13:45:57;5.03;;;1.35;;
33104;SDS011;19476;51.448;6.674;2023-02-03T13:48:24;3.70;;;1.17;;
33104;SDS011;19476;51.448;6.674;2023-02-03T13:54:11;5.13;;;1.10;;
33104;SDS011;19476;51.448;6.674;2023-02-03T13:56:56;2.92;;;1.52;;
33104;SDS011;19476;51.448;6.674;2023-02-03T14:02:28;2.65;;;1.05;;
33104;SDS011;19476;51.448;6.674;2023-02-03T14:04:54;4.50;;;1.38;;
33104;SDS011;19476;51.448;6.674;2023-02-03T14:12:37;5.40;;;1.20;;
33104;SDS011;19476;51.448;6.674;2023-02-03T14:25:18;7.68;;;1.42;;
33104;SDS011;19476;51.448;6.674;2023-02-03T14:27:45;4.13;;;1.08;;
33104;SDS011;19476;51.448;6.674;2023-02-03T14:30:24;2.10;;;0.73;;
33104;SDS011;19476;51.448;6.674;2023-02-03T14:35:31;6.10;;;1.43;;
33104;SDS011;19476;51.448;6.674;2023-02-03T14:37:59;4.63;;;1.75;;
33104;SDS011;19476;51.448;6.674;2023-02-03T14:46:16;4.57;;;1.50;;
33104;SDS011;19476;51.448;6.674;2023-02-03T15:05:47;7.00;;;1.60;;
33104;SDS011;19476;51.448;6.674;2023-02-03T15:08:38;5.75;;;1.25;;
33104;SDS011;19476;51.448;6.674;2023-02-03T15:13:48;4.90;;;1.33;;
33104;SDS011;19476;51.448;6.674;2023-02-03T15:16:17;4.70;;;1.35;;
33104;SDS011;19476;51.448;6.674;2023-02-03T15:18:47;5.25;;;1.33;;
33104;SDS011;19476;51.448;6.674;2023-02-03T15:21:22;6.18;;;1.60;;
33104;SDS011;19476;51.448;6.674;2023-02-03T15:23:49;6.03;;;1.75;;
33104;SDS011;19476;51.448;6.674;2023-02-03T15:28:58;6.55;;;1.45;;
33104;SDS011;19476;51.448;6.674;2023-02-03T15:34:00;5.55;;;1.75;;
33104;SDS011;19476;51.448;6.674;2023-02-03T15:36:34;6.10;;;1.75;;
33104;SDS011;19476;51.448;6.674;2023-02-03T15:39:20;5.70;;;1.20;;
33104;SDS011;19476;51.448;6.674;2023-02-03T15:42:08;4.30;;;1.27;;
33104;SDS011;19476;51.448;6.674;2023-02-03T15:44:42;6.60;;;1.58;;
33104;SDS011;19476;51.448;6.674;2023-02-03T15:47:19;5.78;;;1.45;;
33104;SDS011;19476;51.448;6.674;2023-02-03T15:49:59;5.88;;;1.50;;
33104;SDS011;19476;51.448;6.674;2023-02-03T15:52:32;6.65;;;1.42;;
33104;SDS011;19476;51.448;6.674;2023-02-03T15:55:15;6.82;;;1.83;;
33104;SDS011;19476;51.448;6.674;2023-02-03T15:57:46;8.65;;;1.70;;
33104;SDS011;19476;51.448;6.674;2023-02-03T16:00:23;5.82;;;1.30;;
33104;SDS011;19476;51.448;6.674;2023-02-03T16:03:03;7.25;;;2.28;;
33104;SDS011;19476;51.448;6.674;2023-02-03T16:05:39;7.32;;;2.08;;
33104;SDS011;19476;51.448;6.674;2023-02-03T16:14:01;8.27;;;1.95;;
33104;SDS011;19476;51.448;6.674;2023-02-03T16:16:38;6.60;;;2.22;;
33104;SDS011;19476;51.448;6.674;2023-02-03T16:19:16;8.02;;;1.70;;
33104;SDS011;19476;51.448;6.674;2023-02-03T16:21:52;6.93;;;1.77;;
33104;SDS011;19476;51.448;6.674;2023-02-03T16:29:51;13.30;;;2.38;;
33104;SDS011;19476;51.448;6.674;2023-02-03T16:32:37;5.60;;;2.03;;
33104;SDS011;19476;51.448;6.674;2023-02-03T16:35:27;10.50;;;2.30;;
33104;SDS011;19476;51.448;6.674;2023-02-03T16:38:16;6.78;;;1.60;;
33104;SDS011;19476;51.448;6.674;2023-02-03T16:41:01;5.53;;;1.33;;
33104;SDS011;19476;51.448;6.674;2023-02-03T16:43:56;7.30;;;2.00;;
33104;SDS011;19476;51.448;6.674;2023-02-03T16:46:46;6.18;;;1.50;;
33104;SDS011;19476;51.448;6.674;2023-02-03T16:49:31;5.97;;;1.73;;
33104;SDS011;19476;51.448;6.674;2023-02-03T16:52:16;6.95;;;1.85;;
33104;SDS011;19476;51.448;6.674;2023-02-03T16:54:45;10.50;;;2.38;;
33104;SDS011;19476;51.448;6.674;2023-02-03T16:57:11;12.25;;;3.00;;
33104;SDS011;19476;51.448;6.674;2023-02-03T16:59:37;8.57;;;1.95;;
33104;SDS011;19476;51.448;6.674;2023-02-03T17:02:03;6.35;;;1.83;;
33104;SDS011;19476;51.448;6.674;2023-02-03T17:18:37;10.18;;;2.28;;
33104;SDS011;19476;51.448;6.674;2023-02-03T18:08:34;8.90;;;2.10;;
33104;SDS011;19476;51.448;6.674;2023-02-03T18:11:00;11.90;;;2.72;;
33104;SDS011;19476;51.448;6.674;2023-02-03T18:13:27;9.52;;;2.08;;
33104;SDS011;19476;51.448;6.674;2023-02-03T18:15:55;8.18;;;2.22;;
33104;SDS011;19476;51.448;6.674;2023-02-03T18:18:21;8.88;;;2.47;;
33104;SDS011;19476;51.448;6.674;2023-02-03T18:20:49;9.15;;;1.95;;
33104;SDS011;19476;51.448;6.674;2023-02-03T18:23:15;8.15;;;2.00;;
33104;SDS011;19476;51.448;6.674;2023-02-03T18:25:43;6.82;;;2.28;;
33104;SDS011;19476;51.448;6.674;2023-02-03T18:28:09;8.75;;;2.03;;
33104;SDS011;19476;51.448;6.674;2023-02-03T18:30:35;10.93;;;1.70;;
33104;SDS011;19476;51.448;6.674;2023-02-03T18:33:01;8.93;;;2.28;;
33104;SDS011;19476;51.448;6.674;2023-02-03T18:35:27;8.02;;;2.05;;
33104;SDS011;19476;51.448;6.674;2023-02-03T18:37:54;8.60;;;1.73;;
33104;SDS011;19476;51.448;6.674;2023-02-03T18:40:20;8.82;;;2.30;;
33104;SDS011;19476;51.448;6.674;2023-02-03T18:42:45;9.68;;;1.67;;
33104;SDS011;19476;51.448;6.674;2023-02-03T18:45:11;7.03;;;1.88;;
33104;SDS011;19476;51.448;6.674;2023-02-03T18:47:37;7.72;;;1.60;;
33104;SDS011;19476;51.448;6.674;2023-02-03T18:50:03;6.03;;;1.75;;
33104;SDS011;19476;51.448;6.674;2023-02-03T18:52:29;7.97;;;2.08;;
33104;SDS011;19476;51.448;6.674;2023-02-03T18:54:55;10.43;;;2.45;;
33104;SDS011;19476;51.448;6.674;2023-02-03T18:57:21;10.00;;;2.22;;
33104;SDS011;19476;51.448;6.674;2023-02-03T18:59:47;7.68;;;1.77;;
33104;SDS011;19476;51.448;6.674;2023-02-03T19:02:13;9.15;;;2.33;;
33104;SDS011;19476;51.448;6.674;2023-02-03T19:04:39;6.18;;;1.75;;
33104;SDS011;19476;51.448;6.674;2023-02-03T19:07:05;10.93;;;2.40;;
33104;SDS011;19476;51.448;6.674;2023-02-03T19:09:31;12.68;;;2.35;;